Time;durP1;ratioP1;P1;durP2;ratioP2;P2;SDS_P1;SDS_P2;PMS_P1;PMS_P2;Temp;Humidity;BMP_temperature;BMP_pressure;BME280_temperature;BME280_humidity;BME280_pressure;Samples;Min_cycle;Max_cycle;Signal;HPM_P1;HPM_P2
2022/05/21 00:01:55;;;;;;;;;6.80;6.20;;;;;14.84;100.00;101982.72;6319177;22;45305;-85
2022/05/21 00:04:20;;;;;;;;;7.20;7.20;;;;;14.84;100.00;101979.16;6315496;22;45348;-84
2022/05/21 00:06:46;;;;;;;;;8.00;6.25;;;;;14.84;100.00;101984.50;6312445;22;44657;-85
2022/05/21 00:09:12;;;;;;;;;6.75;5.25;;;;;14.85;100.00;101976.41;6310643;22;44841;-85
2022/05/21 00:11:38;;;;;;;;;8.00;5.50;;;;;14.84;100.00;101979.16;6313385;22;45183;-83
2022/05/21 00:14:04;;;;;;;;;5.80;5.80;;;;;14.84;100.00;101979.16;6314628;22;44650;-85
2022/05/21 00:16:30;;;;;;;;;10.00;7.00;;;;;14.84;100.00;101981.84;6311375;22;45239;-85
2022/05/21 00:18:56;;;;;;;;;6.25;4.25;;;;;14.83;100.00;101980.97;6308252;22;44787;-85
2022/05/21 00:21:21;;;;;;;;;6.50;6.50;;;;;14.84;100.00;101985.41;6308422;22;45167;-86
2022/05/21 00:23:47;;;;;;;;;7.75;5.25;;;;;14.83;100.00;101989.00;6318576;22;45300;-86
2022/05/21 00:26:15;;;;;;;;;6.50;5.75;;;;;14.81;100.00;101984.72;6320166;22;44706;-85
2022/05/21 00:28:43;;;;;;;;;4.00;3.25;;;;;14.77;100.00;101983.19;6324557;22;44671;-84
2022/05/21 00:31:12;;;;;;;;;7.20;5.20;;;;;14.73;100.00;101985.22;6320256;22;45237;-83
2022/05/21 00:33:39;;;;;;;;;5.60;5.60;;;;;14.71;100.00;101980.94;6284054;22;44773;-84
2022/05/21 00:36:05;;;;;;;;;6.20;4.80;;;;;14.71;100.00;101983.59;6313806;22;44751;-84
2022/05/21 00:38:31;;;;;;;;;5.25;5.25;;;;;14.70;100.00;101984.53;6318779;22;44715;-84
2022/05/21 00:40:56;;;;;;;;;3.50;3.50;;;;;14.69;100.00;101985.50;6319226;22;45388;-85
2022/05/21 00:43:57;;;;;;;;;4.75;4.25;;;;;14.68;100.00;101983.78;6283737;22;45203;-84
2022/05/21 00:46:32;;;;;;;;;4.40;4.40;;;;;14.67;100.00;101988.28;6285742;22;44806;-85
2022/05/21 00:49:19;;;;;;;;;5.40;4.40;;;;;14.65;100.00;101985.72;6307721;22;45372;-85
2022/05/21 00:52:19;;;;;;;;;4.20;4.20;;;;;14.64;100.00;101992.00;6308682;22;45234;-86
2022/05/21 00:54:48;;;;;;;;;5.80;3.60;;;;;14.60;100.00;101985.16;6283762;22;44724;-84
2022/05/21 00:57:29;;;;;;;;;4.80;4.80;;;;;14.60;100.00;101985.16;6312541;22;44760;-83
2022/05/21 00:59:59;;;;;;;;;6.40;6.00;;;;;14.56;100.00;101985.44;6308025;22;44868;-83
2022/05/21 01:02:33;;;;;;;;;6.00;5.20;;;;;14.52;100.00;101989.28;6310578;22;45179;-82
2022/05/21 01:05:02;;;;;;;;;6.60;4.60;;;;;14.48;100.00;101979.72;6311663;22;45242;-85
2022/05/21 01:07:28;;;;;;;;;1.00;1.00;;;;;14.47;100.00;101989.53;6311437;22;44793;-84
2022/05/21 01:09:56;;;;;;;;;8.50;5.75;;;;;14.45;100.00;101983.41;6311350;22;44724;-84
2022/05/21 01:12:25;;;;;;;;;7.20;5.60;;;;;14.47;100.00;101984.19;6285252;22;46833;-84
2022/05/21 01:14:55;;;;;;;;;5.60;4.60;;;;;14.47;100.00;101988.66;6308859;22;44763;-84
2022/05/21 01:17:21;;;;;;;;;4.00;4.00;;;;;14.45;100.00;101986.06;6306138;22;45258;-82
2022/05/21 01:20:02;;;;;;;;;6.40;4.00;;;;;14.45;100.00;101988.75;6280094;22;45203;-83
2022/05/21 01:22:39;;;;;;;;;4.20;4.20;;;;;14.46;100.00;101984.28;6309945;22;45214;-84
2022/05/21 01:25:05;;;;;;;;;5.80;5.80;;;;;14.46;100.00;101995.84;6309324;22;45370;-85
2022/05/21 01:27:31;;;;;;;;;6.40;4.20;;;;;14.46;100.00;101992.31;6315124;22;44844;-83
2022/05/21 01:29:58;;;;;;;;;6.50;5.25;;;;;14.44;100.00;101989.69;6314737;22;45410;-84
2022/05/21 01:32:24;;;;;;;;;5.60;5.60;;;;;14.43;100.00;101982.66;6315800;22;45339;-85
2022/05/21 01:34:50;;;;;;;;;6.50;6.50;;;;;14.42;100.00;101991.63;6312919;22;45231;-84
2022/05/21 01:37:16;;;;;;;;;5.20;5.20;;;;;14.42;100.00;101993.44;6307541;22;44747;-85
2022/05/21 01:39:42;;;;;;;;;5.75;5.25;;;;;14.42;100.00;101988.09;6289844;22;45442;-84
2022/05/21 01:42:08;;;;;;;;;6.25;4.00;;;;;14.42;100.00;101991.63;6313436;22;45140;-83
2022/05/21 01:44:39;;;;;;;;;3.80;3.80;;;;;14.43;100.00;101996.03;6311479;22;44705;-84
2022/05/21 01:47:15;;;;;;;;;5.00;5.00;;;;;14.41;100.00;101992.59;6314141;22;44653;-85
2022/05/21 01:49:42;;;;;;;;;3.75;3.75;;;;;14.42;100.00;101994.31;6313225;22;44805;-84
2022/05/21 01:52:08;;;;;;;;;6.00;4.80;;;;;14.42;100.00;101988.09;6315486;22;45237;-84
2022/05/21 01:54:35;;;;;;;;;6.80;6.40;;;;;14.43;100.00;101990.66;6309563;22;45230;-82
2022/05/21 01:57:01;;;;;;;;;5.60;4.00;;;;;14.45;100.00;101998.59;6311866;22;44852;-82
2022/05/21 01:59:27;;;;;;;;;4.00;2.40;;;;;14.46;100.00;102000.31;6308722;22;44852;-83
2022/05/21 02:01:52;;;;;;;;;5.50;5.50;;;;;14.43;100.00;101988.00;6311563;22;44951;-84
2022/05/21 02:04:19;;;;;;;;;4.00;4.00;;;;;14.44;100.00;101981.69;6311019;22;45285;-85
2022/05/21 02:06:44;;;;;;;;;4.80;4.20;;;;;14.43;100.00;101982.66;6310386;22;45254;-83
2022/05/21 02:09:11;;;;;;;;;6.25;5.25;;;;;14.45;100.00;101979.88;6309302;22;45289;-83
2022/05/21 02:11:37;;;;;;;;;9.40;5.20;;;;;14.46;100.00;101979.78;6308546;22;45918;-84
2022/05/21 02:14:04;;;;;;;;;7.60;4.20;;;;;14.47;100.00;101981.50;6314073;22;44646;-85
2022/05/21 02:16:30;;;;;;;;;4.20;4.20;;;;;14.48;100.00;101980.56;6314717;22;44693;-82
2022/05/21 02:18:55;;;;;;;;;4.75;3.50;;;;;14.50;100.00;101988.50;6307890;22;45341;-84
2022/05/21 02:21:21;;;;;;;;;9.50;5.25;;;;;14.52;100.00;101987.44;6305725;22;45272;-83
2022/05/21 02:23:46;;;;;;;;;4.00;3.00;;;;;14.53;100.00;101988.31;6279570;22;45335;-84
2022/05/21 02:26:12;;;;;;;;;4.25;3.50;;;;;14.53;100.00;101988.31;6311273;22;44763;-83
2022/05/21 02:28:37;;;;;;;;;5.25;3.75;;;;;14.51;100.00;101982.22;6311630;22;44840;-84
2022/05/21 02:31:03;;;;;;;;;6.75;4.50;;;;;14.52;100.00;101983.91;6307100;22;45398;-84
2022/05/21 02:33:30;;;;;;;;;3.00;3.00;;;;;14.51;100.00;101984.88;6306754;22;45268;-83
2022/05/21 02:35:56;;;;;;;;;5.20;4.00;;;;;14.49;100.00;101986.78;6306799;22;45399;-84
2022/05/21 02:41:10;;;;;;;;;6.00;3.80;;;;;14.43;100.00;101982.66;6317171;22;45246;-84
2022/05/21 02:43:36;;;;;;;;;3.20;3.20;;;;;14.45;100.00;101985.22;6312269;22;45518;-82
2022/05/21 02:46:02;;;;;;;;;2.75;2.00;;;;;14.44;100.00;101988.84;6283156;22;44749;-82
2022/05/21 02:48:29;;;;;;;;;10.40;6.00;;;;;14.42;100.00;101985.44;6316847;22;44822;-84
2022/05/21 02:50:55;;;;;;;;;4.20;4.20;;;;;14.37;100.00;101986.56;6314897;22;45899;-83
2022/05/21 02:53:21;;;;;;;;;4.00;4.00;;;;;14.36;100.00;101989.34;6311966;22;44705;-83
2022/05/21 02:55:47;;;;;;;;;5.20;4.80;;;;;14.32;100.00;101987.81;6312696;22;44763;-82
2022/05/21 02:58:13;;;;;;;;;3.40;3.40;;;;;14.27;100.00;101988.09;6313854;22;45073;-81
2022/05/21 03:00:38;;;;;;;;;4.25;3.25;;;;;14.26;100.00;101988.19;6284580;22;45010;-83
2022/05/21 03:03:04;;;;;;;;;3.00;3.00;;;;;14.25;100.00;101992.66;6312909;22;44784;-83
2022/05/21 03:05:31;;;;;;;;;3.75;3.75;;;;;14.25;100.00;101987.31;6317127;22;45325;-82
2022/05/21 03:07:57;;;;;;;;;3.40;3.40;;;;;14.26;100.00;101999.72;6315788;22;44764;-82
2022/05/21 03:10:25;;;;;;;;;4.40;4.00;;;;;14.27;100.00;101990.78;6316888;22;45054;-84
2022/05/21 03:12:55;;;;;;;;;8.00;4.00;;;;;14.28;100.00;101994.31;6288713;22;44715;-83
2022/05/21 03:15:29;;;;;;;;;5.20;5.20;;;;;14.28;100.00;101986.28;6316533;22;44755;-84
2022/05/21 03:17:54;;;;;;;;;5.40;4.80;;;;;14.29;100.00;101988.00;6312204;22;45410;-83
2022/05/21 03:20:21;;;;;;;;;4.25;4.25;;;;;14.30;100.00;101992.38;6307274;22;45485;-85
2022/05/21 03:22:47;;;;;;;;;4.40;4.40;;;;;14.34;100.00;101996.59;6305815;22;44687;-83
2022/05/21 03:25:13;;;;;;;;;9.20;6.60;;;;;14.33;100.00;101987.72;6307724;22;44693;-85
2022/05/21 03:27:39;;;;;;;;;8.60;5.20;;;;;14.38;100.00;101990.97;6304647;22;45321;-83
2022/05/21 03:30:09;;;;;;;;;6.40;4.40;;;;;14.43;100.00;101996.03;6287091;22;46926;-85
2022/05/21 03:32:34;;;;;;;;;8.80;3.60;;;;;14.47;100.00;101992.19;6305536;22;45183;-84
2022/05/21 03:35:00;;;;;;;;;3.50;3.50;;;;;14.51;100.00;101991.09;6305924;22;44682;-83
2022/05/21 03:37:26;;;;;;;;;6.25;5.25;;;;;14.52;100.00;101992.78;6278543;22;44823;-85
2022/05/21 03:39:52;;;;;;;;;3.25;3.25;;;;;14.53;100.00;101989.16;6306870;22;45234;-85
2022/05/21 03:42:18;;;;;;;;;4.80;4.20;;;;;14.57;100.00;101998.72;6306734;22;44832;-84
2022/05/21 03:44:46;;;;;;;;;5.75;4.75;;;;;14.59;100.00;101990.56;6311006;22;45424;-85
2022/05/21 03:47:13;;;;;;;;;3.40;3.40;;;;;14.60;100.00;101978.91;6311179;22;44912;-83
2022/05/21 03:49:38;;;;;;;;;6.60;3.80;;;;;14.58;100.00;101981.69;6312754;22;45349;-84
2022/05/21 03:52:06;;;;;;;;;6.25;5.25;;;;;14.61;100.00;101988.69;6312187;22;45251;-84
2022/05/21 03:54:32;;;;;;;;;6.00;4.20;;;;;14.61;100.00;101994.88;6311223;22;44780;-84
2022/05/21 03:56:58;;;;;;;;;7.20;5.40;;;;;14.63;100.00;102002.81;6314674;22;45340;-84
2022/05/21 03:59:23;;;;;;;;;4.50;4.00;;;;;14.62;100.00;101995.75;6310134;22;45020;-84
2022/05/21 04:01:49;;;;;;;;;9.00;6.50;;;;;14.63;100.00;101994.78;6306385;22;44716;-83
2022/05/21 04:04:15;;;;;;;;;7.00;5.00;;;;;14.63;100.00;101994.78;6309252;22;44861;-85
2022/05/21 04:06:40;;;;;;;;;6.75;4.25;;;;;14.61;100.00;101989.53;6306349;22;45413;-82
2022/05/21 04:09:06;;;;;;;;;10.25;6.00;;;;;14.67;100.00;101992.78;6310219;22;45164;-84
2022/05/21 04:11:32;;;;;;;;;14.75;13.25;;;;;14.72;100.00;101998.69;6309799;22;45219;-84
2022/05/21 04:13:57;;;;;;;;;4.00;4.00;;;;;14.75;100.00;101988.66;6308905;22;44649;-84
2022/05/21 04:16:23;;;;;;;;;4.25;3.00;;;;;14.80;100.00;101991.03;6314146;22;45346;-84
2022/05/21 04:18:50;;;;;;;;;8.50;5.25;;;;;14.83;100.00;101988.16;6316807;22;45306;-85
2022/05/21 04:21:15;;;;;;;;;6.00;4.60;;;;;14.86;100.00;101998.66;6313486;22;45197;-83
2022/05/21 04:23:41;;;;;;;;;7.00;5.00;;;;;14.90;100.00;101989.47;6310826;22;45757;-82
2022/05/21 04:26:06;;;;;;;;;5.50;4.25;;;;;14.94;100.00;101998.16;6313168;22;45191;-85
2022/05/21 04:28:34;;;;;;;;;5.75;5.75;;;;;14.98;100.00;102005.88;6280428;22;46522;-84
2022/05/21 04:31:00;;;;;;;;;4.00;4.00;;;;;15.01;100.00;101999.47;6306978;22;45319;-84
2022/05/21 04:33:25;;;;;;;;;5.00;4.50;;;;;15.03;100.00;102000.22;6307007;22;45217;-85
2022/05/21 04:38:35;;;;;;;;;8.20;7.20;;;;;15.14;100.00;101987.00;6311608;22;45324;-82
2022/05/21 04:41:01;;;;;;;;;13.00;12.75;;;;;15.19;100.00;101994.75;6312288;22;45143;-85
2022/05/21 04:43:26;;;;;;;;;4.50;4.50;;;;;15.25;100.00;101991.66;6313689;22;45215;-83
2022/05/21 04:45:54;;;;;;;;;5.50;4.50;;;;;15.30;100.00;101998.41;6314345;22;45224;-81
2022/05/21 04:48:20;;;;;;;;;7.80;6.00;;;;;15.34;100.00;101997.25;6323498;22;45395;-84
2022/05/21 04:50:45;;;;;;;;;5.00;4.75;;;;;15.38;100.00;101984.53;6317651;22;45413;-83
2022/05/21 04:53:10;;;;;;;;;5.25;5.25;;;;;15.44;100.00;101984.09;6286291;22;45405;-83
2022/05/21 04:55:36;;;;;;;;;5.75;5.75;;;;;15.50;100.00;101983.69;6308269;22;45323;-84
2022/05/21 04:58:01;;;;;;;;;6.25;6.25;;;;;15.57;100.00;101994.81;6309536;22;45147;-84
2022/05/21 05:00:28;;;;;;;;;6.00;6.00;;;;;15.63;100.00;101992.63;6309891;22;45368;-84
2022/05/21 05:02:53;;;;;;;;;7.60;6.60;;;;;15.68;100.00;101987.81;6309642;22;45273;-83
2022/05/21 05:05:19;;;;;;;;;6.00;3.25;;;;;15.72;100.00;101984.94;6308688;22;45351;-84
2022/05/21 05:07:44;;;;;;;;;4.75;4.25;;;;;15.74;100.00;101986.53;6311183;22;45328;-85
2022/05/21 05:10:10;;;;;;;;;7.75;5.75;;;;;15.73;100.00;101989.34;6317957;22;45282;-83
2022/05/21 05:12:35;;;;;;;;;4.75;4.50;;;;;15.82;100.00;101991.38;6310978;22;44713;-83
2022/05/21 05:15:01;;;;;;;;;7.25;7.25;;;;;15.94;100.00;101987.84;6309417;22;45495;-85
2022/05/21 05:17:27;;;;;;;;;7.00;5.75;;;;;16.11;100.00;101990.22;6309027;22;45276;-84
2022/05/21 05:19:54;;;;;;;;;9.25;6.25;;;;;16.27;100.00;101987.28;6313584;22;45452;-84
2022/05/21 05:22:21;;;;;;;;;5.80;4.00;;;;;16.41;100.00;101992.53;6313878;22;45218;-84
2022/05/21 05:24:46;;;;;;;;;6.20;6.20;;;;;16.55;100.00;101985.31;6309231;22;45389;-82
2022/05/21 05:27:11;;;;;;;;;6.25;6.25;;;;;16.63;100.00;101975.75;6282221;22;45184;-84
2022/05/21 05:29:37;;;;;;;;;13.75;12.50;;;;;16.79;100.00;101974.66;6307725;22;45336;-85
2022/05/21 05:32:03;;;;;;;;;8.00;7.50;;;;;16.93;100.00;101980.72;6306860;22;45249;-85
2022/05/21 05:34:29;;;;;;;;;8.40;7.20;;;;;17.13;100.00;101981.09;6318135;22;44868;-86
2022/05/21 05:36:54;;;;;;;;;5.00;4.50;;;;;17.26;100.00;101987.25;6312046;22;46687;-85
2022/05/21 05:39:20;;;;;;;;;8.00;6.75;;;;;17.46;100.00;101983.91;6313579;22;44699;-85
2022/05/21 05:41:46;;;;;;;;;10.20;6.40;;;;;17.65;100.00;101988.75;6308956;22;45229;-84
2022/05/21 05:44:11;;;;;;;;;5.50;5.50;;;;;17.81;100.00;101985.75;6310391;22;44701;-84
2022/05/21 05:46:36;;;;;;;;;8.75;7.75;;;;;18.01;100.00;101980.66;6310781;22;45090;-86
2022/05/21 05:49:02;;;;;;;;;7.25;5.00;;;;;18.21;100.00;101977.22;6312634;22;45303;-84
2022/05/21 05:51:29;;;;;;;;;7.20;7.20;;;;;18.42;100.00;101982.72;6282813;22;44761;-85
2022/05/21 05:53:54;;;;;;;;;9.40;5.60;;;;;18.58;100.00;101985.06;6284289;22;45322;-87
2022/05/21 05:56:21;;;;;;;;;5.00;5.00;;;;;18.59;100.00;101994.84;6283914;22;47392;-86
2022/05/21 06:01:31;;;;;;;;;3.80;2.60;;;;;18.58;100.00;101998.50;6307237;22;44828;-78
2022/05/21 06:03:56;;;;;;;;;4.50;4.50;;;;;18.60;100.00;101983.09;6305833;22;44761;-77
2022/05/21 06:06:22;;;;;;;;;4.25;4.25;;;;;18.52;100.00;101990.91;6306593;22;44956;-78
2022/05/21 06:08:48;;;;;;;;;5.80;4.40;;;;;18.76;100.00;101988.97;6305889;22;44728;-78
2022/05/21 06:11:15;;;;;;;;;6.00;5.25;;;;;19.02;100.00;101988.66;6306906;22;44735;-76
2022/05/21 06:13:41;;;;;;;;;5.20;5.20;;;;;19.25;100.00;101993.00;6306790;22;45253;-78
2022/05/21 06:16:06;;;;;;;;;4.75;4.50;;;;;19.51;100.00;101988.94;6306419;22;45158;-79
2022/05/21 06:18:32;;;;;;;;;6.00;6.00;;;;;19.62;100.00;101992.59;6304969;22;45265;-78
2022/05/21 06:20:59;;;;;;;;;5.50;5.50;;;;;19.78;100.00;101990.31;6306675;22;44615;-77
2022/05/21 06:23:25;;;;;;;;;4.60;4.60;;;;;19.64;100.00;101990.66;6309473;22;45191;-78
2022/05/21 06:25:52;;;;;;;;;5.75;4.00;;;;;19.20;100.00;101989.84;6308569;22;45285;-78
2022/05/21 06:28:18;;;;;;;;;3.00;3.00;;;;;18.95;100.00;101991.00;6307123;22;45187;-77
2022/05/21 06:30:45;;;;;;;;;4.75;3.75;;;;;18.91;100.00;101990.41;6307187;22;45281;-79
2022/05/21 06:33:12;;;;;;;;;4.00;4.00;;;;;19.30;100.00;101990.78;6306568;22;45154;-76
2022/05/21 06:35:38;;;;;;;;;4.00;3.00;;;;;19.55;100.00;101977.94;6305630;22;45261;-79
2022/05/21 06:38:04;;;;;;;;;6.20;3.40;;;;;19.81;100.00;101976.56;6305200;22;45087;-79
2022/05/21 06:40:29;;;;;;;;;5.75;5.00;;;;;20.13;100.00;101981.88;6307061;22;44792;-79
2022/05/21 06:42:55;;;;;;;;;2.00;2.00;;;;;20.35;100.00;101980.81;6305585;22;45731;-79
2022/05/21 06:45:20;;;;;;;;;6.00;6.00;;;;;20.36;100.00;101973.59;6306050;22;45504;-79
2022/05/21 06:47:46;;;;;;;;;3.50;3.50;;;;;20.49;100.00;101985.88;6306300;22;44775;-78
2022/05/21 06:50:12;;;;;;;;;4.75;4.00;;;;;20.94;100.00;101984.59;6306067;22;45317;-80
2022/05/21 06:52:39;;;;;;;;;4.00;4.00;;;;;21.04;100.00;101989.00;6306367;22;45396;-78
2022/05/21 06:55:05;;;;;;;;;6.60;5.00;;;;;21.05;100.00;101987.16;6304915;22;45558;-78
2022/05/21 06:57:32;;;;;;;;;4.60;4.60;;;;;21.17;100.00;101975.19;6305128;22;45306;-77
2022/05/21 06:59:57;;;;;;;;;4.00;4.00;;;;;21.54;100.00;101979.94;6305179;22;44690;-78
2022/05/21 07:02:25;;;;;;;;;5.00;5.00;;;;;21.58;100.00;101975.94;6306764;22;45151;-77
2022/05/21 07:07:43;;;;;;;;;3.20;3.20;;;;;21.72;100.00;101980.06;6306690;22;44594;-80
2022/05/21 07:10:29;;;;;;;;;4.80;3.00;;;;;21.83;100.00;101982.59;6306091;22;44783;-79
2022/05/21 07:12:55;;;;;;;;;3.40;3.40;;;;;21.76;100.00;101985.03;6278380;22;45378;-79
2022/05/21 07:15:21;;;;;;;;;4.00;4.00;;;;;21.69;100.00;101989.31;6306670;22;45401;-80
2022/05/21 07:17:48;;;;;;;;;5.00;3.20;;;;;21.61;100.00;101988.31;6308411;22;44817;-80
2022/05/21 07:20:17;;;;;;;;;2.20;2.20;;;;;21.59;100.00;101987.63;6306388;22;44697;-78
2022/05/21 07:22:44;;;;;;;;;3.40;2.00;;;;;21.57;100.00;101987.78;6305657;22;44705;-78
2022/05/21 07:25:13;;;;;;;;;1.40;1.20;;;;;21.35;100.00;101991.59;6305485;22;45155;-79
2022/05/21 07:27:39;;;;;;;;;4.40;3.00;;;;;20.97;100.00;101984.28;6305368;22;45293;-79
2022/05/21 07:30:05;;;;;;;;;3.00;3.00;;;;;20.53;100.00;101994.56;6306615;22;45289;-77
2022/05/21 07:32:31;;;;;;;;;4.80;3.20;;;;;20.71;100.00;101992.06;6306628;22;45138;-78
2022/05/21 07:35:03;;;;;;;;;5.25;3.25;;;;;20.98;100.00;101986.88;6278169;22;47487;-77
2022/05/21 07:37:28;;;;;;;;;2.40;2.40;;;;;21.25;100.00;101986.16;6305763;22;44814;-79
2022/05/21 07:39:54;;;;;;;;;2.00;2.00;;;;;21.27;100.00;101995.00;6305541;22;44761;-79
2022/05/21 07:42:20;;;;;;;;;3.00;1.75;;;;;21.46;100.00;101986.03;6307325;22;45246;-80
2022/05/21 07:44:45;;;;;;;;;2.00;2.00;;;;;21.62;100.00;101987.34;6309319;22;46998;-81
2022/05/21 07:47:11;;;;;;;;;0.00;0.00;;;;;21.65;98.73;101989.75;6295668;22;45761;-84
2022/05/21 07:49:38;;;;;;;;;1.00;1.00;;;;;21.44;96.63;101995.31;6259231;22;44780;-86
2022/05/21 07:52:04;;;;;;;;;1.40;1.40;;;;;21.34;100.00;101989.91;6291422;22;44836;-86
2022/05/21 07:54:30;;;;;;;;;2.00;2.00;;;;;20.58;100.00;101986.03;6265499;22;46677;-85
2022/05/21 07:56:56;;;;;;;;;4.25;2.25;;;;;20.52;100.00;101985.59;6289967;22;44610;-86
2022/05/21 07:59:21;;;;;;;;;2.50;2.00;;;;;20.74;100.00;101986.38;6266009;22;44720;-86
2022/05/21 08:01:47;;;;;;;;;3.75;3.00;;;;;20.91;100.00;101987.56;6267114;22;44819;-84
2022/05/21 08:04:13;;;;;;;;;4.40;2.00;;;;;21.01;100.00;101985.72;6294307;22;45151;-84
2022/05/21 08:06:38;;;;;;;;;3.00;3.00;;;;;21.17;100.00;101982.47;6293795;22;45102;-85
2022/05/21 08:09:04;;;;;;;;;4.75;3.00;;;;;21.13;100.00;101984.63;6268654;22;44721;-85
2022/05/21 08:11:30;;;;;;;;;2.75;2.75;;;;;21.02;100.00;101990.13;6296599;22;44837;-84
2022/05/21 08:13:55;;;;;;;;;5.25;5.25;;;;;20.22;100.00;101975.66;6267321;22;46676;-86
2022/05/21 08:16:22;;;;;;;;;4.50;4.00;;;;;20.32;100.00;101977.56;6266717;22;44731;-85
2022/05/21 08:18:48;;;;;;;;;5.20;5.20;;;;;20.43;100.00;101985.53;6265521;22;44676;-87
2022/05/21 08:21:14;;;;;;;;;6.00;4.25;;;;;20.18;100.00;101979.63;6296956;22;45147;-86
2022/05/21 08:29:11;;;;;;;;;1.80;1.80;;;;;20.76;100.00;101963.66;6294399;22;44654;-86
2022/05/21 08:31:37;;;;;;;;;3.20;3.20;;;;;20.64;100.00;101963.88;6293993;22;44786;-85
2022/05/21 08:34:03;;;;;;;;;1.25;1.25;;;;;20.49;100.00;101972.38;6290735;22;44957;-87
2022/05/21 08:36:29;;;;;;;;;3.00;1.60;;;;;20.51;100.00;101973.09;6263372;22;44782;-87
2022/05/21 08:38:56;;;;;;;;;0.50;0.25;;;;;20.62;100.00;101969.44;6290359;22;44732;-86
2022/05/21 08:41:25;;;;;;;;;3.00;2.00;;;;;20.61;100.00;101965.03;6293744;22;44888;-85
2022/05/21 08:44:05;;;;;;;;;1.40;1.00;;;;;20.74;100.00;101970.16;6294696;22;45031;-84
2022/05/21 08:46:43;;;;;;;;;1.00;1.00;;;;;21.15;100.00;101965.53;6300449;22;44685;-86
2022/05/21 08:49:22;;;;;;;;;1.00;1.00;;;;;21.60;100.00;101968.53;6328440;22;44579;-87
2022/05/21 08:51:55;;;;;;;;;2.60;2.60;;;;;21.92;99.93;101975.47;6328677;22;44720;-86
2022/05/21 08:54:27;;;;;;;;;1.60;1.60;;;;;22.23;100.00;101963.41;6294982;22;46699;-85
2022/05/21 08:56:55;;;;;;;;;2.00;2.00;;;;;22.50;97.53;101961.72;6294720;22;44660;-86
2022/05/21 08:59:25;;;;;;;;;4.00;3.00;;;;;22.63;95.32;101970.34;6270444;22;44851;-87
2022/05/21 09:01:51;;;;;;;;;0.80;0.80;;;;;22.55;92.84;101970.25;6324972;22;44757;-86
2022/05/21 09:04:16;;;;;;;;;2.00;1.60;;;;;21.81;92.05;101965.66;6300458;22;45384;-85
2022/05/21 09:07:12;;;;;;;;;2.00;2.00;;;;;21.65;97.49;101960.84;6327480;22;44762;-86
2022/05/21 09:09:58;;;;;;;;;1.40;1.00;;;;;21.91;100.00;101952.13;6320563;22;44674;-86
2022/05/21 09:12:37;;;;;;;;;1.00;1.00;;;;;22.13;97.24;101957.19;6299583;22;44853;-85
2022/05/21 09:15:04;;;;;;;;;3.00;2.00;;;;;22.40;97.07;101950.94;6298379;22;46097;-86
2022/05/21 09:17:30;;;;;;;;;4.80;2.00;;;;;22.66;93.94;101945.66;6319971;22;44693;-86
2022/05/21 09:20:03;;;;;;;;;1.40;1.40;;;;;22.79;94.89;101943.44;6324522;22;44751;-86
2022/05/21 09:22:30;;;;;;;;;2.40;2.40;;;;;22.87;92.03;101939.09;6325349;22;44788;-85
2022/05/21 09:25:00;;;;;;;;;3.00;1.00;;;;;22.83;91.71;101935.84;6325340;22;45193;-85
2022/05/21 09:27:32;;;;;;;;;3.00;1.80;;;;;22.49;91.03;101943.78;6328121;22;44661;-85
2022/05/21 09:30:23;;;;;;;;;2.20;1.20;;;;;22.48;93.80;101929.38;6332137;22;44554;-85
2022/05/21 09:32:53;;;;;;;;;2.80;1.00;;;;;22.29;92.00;101926.78;6331343;22;44740;-86
2022/05/21 09:35:48;;;;;;;;;1.40;1.40;;;;;22.44;95.11;101933.41;6329964;22;45113;-85
2022/05/21 09:38:21;;;;;;;;;3.80;3.00;;;;;22.56;92.94;101925.91;6302581;22;44697;-87
2022/05/21 09:40:47;;;;;;;;;1.20;1.20;;;;;22.58;92.85;101918.50;6327210;22;44700;-87
2022/05/21 09:46:31;;;;;;;;;3.60;3.60;;;;;21.84;96.69;101924.78;6303047;22;44954;-87
2022/05/21 09:49:23;;;;;;;;;2.00;2.00;;;;;21.92;95.53;101919.47;6323068;22;44709;-85
2022/05/21 09:52:19;;;;;;;;;1.80;1.00;;;;;22.03;95.85;101922.00;6324495;22;44828;-87
2022/05/21 09:54:44;;;;;;;;;2.00;2.00;;;;;22.27;96.44;101916.09;6300096;22;44837;-87
2022/05/21 09:57:31;;;;;;;;;2.25;1.00;;;;;22.58;96.47;101911.22;6296052;22;44890;-86
2022/05/21 10:00:24;;;;;;;;;1.00;1.00;;;;;22.69;89.84;101920.13;6297247;22;44557;-87
2022/05/21 10:02:56;;;;;;;;;0.00;0.00;;;;;22.22;92.12;101899.44;6306165;22;44745;-87
2022/05/21 10:05:30;;;;;;;;;3.00;2.00;;;;;21.55;94.49;101912.16;6319297;22;44775;-87
2022/05/21 10:11:07;;;;;;;;;2.00;2.00;;;;;21.60;100.00;101900.91;6320308;22;44689;-88
2022/05/21 10:13:36;;;;;;;;;2.60;2.60;;;;;;;;6318354;22;44781;-85
2022/05/21 10:16:29;;;;;;;;;1.40;1.40;;;;;22.39;97.54;101895.09;6322562;22;44770;-87
2022/05/21 10:19:10;;;;;;;;;1.60;1.60;;;;;22.62;96.15;101886.50;6322581;22;45158;-86
2022/05/21 10:21:48;;;;;;;;;4.20;3.20;;;;;22.43;94.22;101898.31;6322725;22;45352;-86
2022/05/21 10:24:23;;;;;;;;;0.60;0.40;;;;;21.95;95.55;101897.56;6322973;22;44701;-85
2022/05/21 10:27:04;;;;;;;;;1.20;1.20;;;;;22.06;97.11;101897.34;6295206;22;44867;-85
2022/05/21 10:29:40;;;;;;;;;1.20;1.20;;;;;22.34;97.78;101897.41;6325086;22;45130;-86
2022/05/21 10:32:15;;;;;;;;;3.40;3.00;;;;;22.67;97.48;101903.16;6321409;22;44673;-86
2022/05/21 10:34:59;;;;;;;;;2.60;2.60;;;;;22.54;96.61;101890.84;6292824;22;44627;-85
2022/05/21 10:37:27;;;;;;;;;3.20;2.00;;;;;22.87;94.22;101899.31;6323860;22;44800;-86
2022/05/21 10:40:26;;;;;;;;;4.60;3.00;;;;;22.77;93.63;101893.97;6324615;22;44954;-88
2022/05/21 10:43:12;;;;;;;;;3.00;2.00;;;;;23.03;95.34;101891.38;6322241;22;44683;-86
2022/05/21 10:46:02;;;;;;;;;3.40;3.20;;;;;22.80;93.22;101895.50;6323963;22;44743;-86
2022/05/21 10:48:47;;;;;;;;;9.20;6.40;;;;;22.60;96.37;101893.94;6318253;22;44947;-86
2022/05/21 10:51:35;;;;;;;;;2.00;2.00;;;;;22.63;95.60;101894.50;6294263;22;45368;-85
2022/05/21 10:54:28;;;;;;;;;4.00;2.00;;;;;22.80;93.28;101880.09;6292857;22;44649;-86
2022/05/21 10:57:20;;;;;;;;;4.60;3.00;;;;;22.71;96.58;101877.47;6294801;22;44756;-88
2022/05/21 11:00:05;;;;;;;;;4.00;4.00;;;;;22.91;96.39;101870.91;6291469;22;44852;-86
2022/05/21 11:03:12;;;;;;;;;2.20;2.20;;;;;23.13;94.49;101871.44;6318050;22;46917;-86
2022/05/21 11:06:10;;;;;;;;;2.80;1.80;;;;;22.87;93.64;101861.38;6321441;22;44768;-87
2022/05/21 11:09:05;;;;;;;;;4.20;3.00;;;;;22.76;93.03;101861.59;6318993;22;44753;-86
2022/05/21 11:11:46;;;;;;;;;5.80;3.00;;;;;22.42;94.66;101866.84;6318024;22;44707;-85
2022/05/21 11:14:21;;;;;;;;;1.20;1.20;;;;;22.54;94.77;101865.63;6316619;22;45156;-86
2022/05/21 11:16:52;;;;;;;;;3.20;3.20;;;;;22.59;94.84;101857.88;6319759;22;44544;-88
2022/05/21 11:19:40;;;;;;;;;6.80;5.00;;;;;22.67;94.63;101857.94;6295569;22;45205;-87
2022/05/21 11:22:09;;;;;;;;;4.00;2.40;;;;;22.80;94.25;101844.88;6318817;22;44827;-85
2022/05/21 11:24:45;;;;;;;;;3.80;3.00;;;;;22.84;93.97;101845.41;6316708;22;45037;-86
2022/05/21 11:27:27;;;;;;;;;5.40;3.80;;;;;22.96;93.19;101837.91;6319344;22;44705;-87
2022/05/21 11:30:07;;;;;;;;;3.00;2.00;;;;;22.95;92.86;101838.94;6291133;22;44627;-87
2022/05/21 11:38:24;;;;;;;;;1.60;1.60;;;;;22.92;90.99;101836.53;6323700;22;44772;-86
2022/05/21 11:41:27;;;;;;;;;5.60;3.00;;;;;22.70;91.55;101837.84;6323537;22;44964;-87
2022/05/21 11:44:55;;;;;;;;;3.00;3.00;;;;;22.53;91.48;101831.41;6164205;23;44889;-86
2022/05/21 11:46:47;;;;;;;;;3.00;2.80;;;;;22.80;90.84;101819.63;6162572;23;44898;-86
2022/05/21 11:49:34;;;;;;;;;2.40;2.20;;;;;23.06;89.55;101825.13;6166225;23;44822;-87
2022/05/21 11:52:26;;;;;;;;;12.20;8.40;;;;;23.40;90.64;101818.91;6161605;23;44622;-86
2022/05/21 11:54:54;;;;;;;;;3.00;3.00;;;;;23.64;86.93;101816.38;6161575;23;44720;-86
2022/05/21 11:57:47;;;;;;;;;2.20;1.00;;;;;24.03;85.87;101813.16;6166980;23;45644;-86
2022/05/21 12:00:16;;;;;;;;;2.20;2.20;;;;;24.57;85.15;101809.06;6168973;23;44663;-84
2022/05/21 12:02:53;;;;;;;;;2.20;2.20;;;;;24.97;82.93;101807.38;6161725;23;44605;-86